Clear Creek, Kentucky
Current Conditions -  °F | °C
As of 11:55 AM on Tuesday 27 Jan 2015 (Local Time) from K1A6 Reporting Station
Overcast Overcast  
Wind Chill: 26°   Ceiling: 2100
Heat Index: 32°   Visibility: 10mi
Dew Point: 26°   Wind: 6mph
Humidity: 77%   Direction: 10°N
Pressure: 30"   Gusts: NA
Location:  36.7417°N, 83.6911°W
Report Text: K1A6 271655Z AUTO 01005KT 10SM OVC021 00/M04 A3000 RMK AO2 T00001036
Loading
Personal Weather Stations






























Interactive Weather Map New forecast layout! Learn more

10-Day Weather Forecast

Advertisements
Track Severe Weather on mobile